Visalia, Kentucky
Current Conditions -  °F | °C
As of 9:52 AM on Monday 22 Dec 2014 (Local Time) from KCVG Reporting Station
Broken Clouds Broken Clouds  
Wind Chill: 35°   Ceiling: 20000
Heat Index: 41°   Visibility: 10mi
Dew Point: 29°   Wind: 9mph
Humidity: 62%   Direction: 130°SE
Pressure: 29.99"   Gusts: NA
Location:  38.8354°N, 84.5143°W
Report Text: KCVG 221452Z 13008KT 10SM SCT095 BKN200 BKN250 05/M02 A2999 RMK AO2 SLP160 T00501017 58007
Loading
Personal Weather Stations






























Interactive Weather Map New forecast layout! Learn more

10-Day Weather Forecast

Advertisements
Track Severe Weather on mobile